Terminal Aerodrome Forecast
Issued by NWS Omaha/Valley, NE

Home | Current Version | Previous Version | Graphics & Text | Print | Product List | Glossary On
Versions: 1 2 3 4 5 6 7 8 9 10 11 12 13 14 15 16 17 18 19 20 21 22 23 24 25 26 27 28 29 30 31 32 33 34 35 36 37 38 39 40 41 42
000
FTUS43 KOAX 191725
TAFOFK
TAF
KOFK 191725Z 1918/2018 36018G25KT 3SM BR OVC010
     FM200400 36010KT P6SM OVC010 PROB30 2004/2010 2SM -SN OVC003
     FM201000 34015KT 5SM BR OVC010 PROB30 2010/2014 4SM -SN BR
      OVC003=

USA.gov is the U.S. government's official web portal to all federal, state and local government web resources and services.